Time;durP1;ratioP1;P1;durP2;ratioP2;P2;SDS_P1;SDS_P2;PMS_P1;PMS_P2;Temp;Humidity;BMP_temperature;BMP_pressure;BME280_temperature;BME280_humidity;BME280_pressure;Samples;Min_cycle;Max_cycle;Signal;HPM_P1;HPM_P2
2023/02/04 00:02:39;;;;;;;1.50;1.50;;;;;;;;;;6287512;28;20288;-79
2023/02/04 00:05:45;;;;;;;2.13;2.00;;;;;;;;;;6286324;28;20289;-78
2023/02/04 00:08:50;;;;;;;5.70;2.10;;;;;;;;;;6286406;28;20295;-78
2023/02/04 00:12:00;;;;;;;4.10;2.30;;;;;;;;;;6286454;28;20310;-78
2023/02/04 00:15:06;;;;;;;1.50;1.50;;;;;;;;;;6285610;28;20279;-79
2023/02/04 00:18:13;;;;;;;2.13;1.83;;;;;;;;;;6287006;28;20290;-79
2023/02/04 00:21:18;;;;;;;4.70;1.70;;;;;;;;;;6285005;28;20306;-78
2023/02/04 00:24:24;;;;;;;1.40;1.40;;;;;;;;;;6286242;28;20634;-77
2023/02/04 00:27:31;;;;;;;1.20;1.20;;;;;;;;;;6286680;28;20290;-78
2023/02/04 00:30:37;;;;;;;1.50;1.50;;;;;;;;;;6284779;28;20450;-78
2023/02/04 00:33:42;;;;;;;1.47;1.40;;;;;;;;;;6284809;28;20286;-77
2023/02/04 00:36:57;;;;;;;4.43;2.20;;;;;;;;;;6286990;28;20583;-79
2023/02/04 00:40:03;;;;;;;3.87;1.50;;;;;;;;;;6300919;28;20302;-79
2023/02/04 00:43:12;;;;;;;1.43;1.33;;;;;;;;;;6287140;28;20299;-79
2023/02/04 00:46:17;;;;;;;2.23;2.00;;;;;;;;;;6284377;28;20291;-78
2023/02/04 00:49:25;;;;;;;1.57;1.50;;;;;;;;;;6287183;28;20298;-78
2023/02/04 00:52:30;;;;;;;3.70;1.30;;;;;;;;;;6299967;28;20292;-77
2023/02/04 00:55:35;;;;;;;2.77;1.30;;;;;;;;;;6301472;28;20291;-79
2023/02/04 00:58:43;;;;;;;1.70;1.70;;;;;;;;;;6298805;28;20255;-78
2023/02/04 01:01:50;;;;;;;2.47;1.30;;;;;;;;;;6284474;28;20473;-77
2023/02/04 01:04:56;;;;;;;1.53;1.43;;;;;;;;;;6284221;28;20692;-78
2023/02/04 01:08:01;;;;;;;2.00;1.30;;;;;;;;;;6285785;28;20428;-78
2023/02/04 01:11:07;;;;;;;1.07;1.07;;;;;;;;;;6316668;28;20302;-77
2023/02/04 01:14:14;;;;;;;1.50;1.40;;;;;;;;;;6283889;28;20301;-78
2023/02/04 01:17:20;;;;;;;2.87;1.47;;;;;;;;;;6285698;28;20294;-78
2023/02/04 01:20:25;;;;;;;3.03;1.10;;;;;;;;;;6285066;28;20290;-78
2023/02/04 01:23:30;;;;;;;3.17;1.20;;;;;;;;;;6316860;28;20594;-77
2023/02/04 01:26:36;;;;;;;2.23;1.33;;;;;;;;;;6285691;28;20293;-78
2023/02/04 01:29:42;;;;;;;1.13;1.13;;;;;;;;;;6283775;28;20288;-77
2023/02/04 01:32:48;;;;;;;1.30;1.30;;;;;;;;;;6283742;28;20598;-78
2023/02/04 01:35:53;;;;;;;1.57;1.40;;;;;;;;;;6283079;28;20290;-78
2023/02/04 01:38:59;;;;;;;1.63;1.53;;;;;;;;;;6283749;28;20306;-78
2023/02/04 01:42:05;;;;;;;1.80;1.70;;;;;;;;;;6285233;28;20606;-78
2023/02/04 01:45:12;;;;;;;1.30;1.30;;;;;;;;;;6283392;28;20595;-79
2023/02/04 01:48:20;;;;;;;1.70;1.63;;;;;;;;;;6283682;28;20510;-78
2023/02/04 01:51:27;;;;;;;1.23;1.23;;;;;;;;;;6282594;28;20294;-78
2023/02/04 01:54:32;;;;;;;1.40;1.40;;;;;;;;;;6283141;28;20300;-77
2023/02/04 01:57:38;;;;;;;1.33;1.33;;;;;;;;;;6285731;28;20283;-78
2023/02/04 02:00:44;;;;;;;1.00;1.00;;;;;;;;;;6283441;28;20306;-77
2023/02/04 02:03:50;;;;;;;1.27;1.20;;;;;;;;;;6284811;28;20429;-79
2023/02/04 02:06:58;;;;;;;1.70;1.13;;;;;;;;;;6267500;28;20290;-78
2023/02/04 02:10:05;;;;;;;1.50;1.40;;;;;;;;;;6282785;28;20298;-78
2023/02/04 02:13:14;;;;;;;4.47;1.63;;;;;;;;;;6283399;28;20287;-78
2023/02/04 02:16:22;;;;;;;2.53;1.47;;;;;;;;;;6284420;28;20298;-78
2023/02/04 02:19:30;;;;;;;1.50;1.50;;;;;;;;;;6282785;28;20318;-77
2023/02/04 02:22:41;;;;;;;2.00;1.30;;;;;;;;;;6285483;28;20590;-77
2023/02/04 02:26:29;;;;;;;3.00;1.20;;;;;;;;;;6264156;28;20294;-78
2023/02/04 02:29:35;;;;;;;4.20;1.30;;;;;;;;;;6285190;28;20475;-78
2023/02/04 02:32:41;;;;;;;2.70;1.73;;;;;;;;;;6282956;28;20310;-78
2023/02/04 02:35:48;;;;;;;6.77;1.63;;;;;;;;;;6283190;28;20298;-77
2023/02/04 02:38:54;;;;;;;1.47;1.47;;;;;;;;;;6288010;28;20293;-78
2023/02/04 02:42:01;;;;;;;1.20;1.20;;;;;;;;;;6289039;28;20306;-78
2023/02/04 02:45:11;;;;;;;1.60;1.27;;;;;;;;;;6287145;28;20310;-77
2023/02/04 02:48:16;;;;;;;1.60;1.17;;;;;;;;;;6287523;28;20305;-79
2023/02/04 02:51:23;;;;;;;2.60;1.50;;;;;;;;;;6288279;28;20343;-77
2023/02/04 02:54:30;;;;;;;1.50;1.30;;;;;;;;;;6286484;28;20310;-78
2023/02/04 02:57:41;;;;;;;2.80;1.30;;;;;;;;;;6287951;28;20318;-79
2023/02/04 03:00:46;;;;;;;1.30;1.20;;;;;;;;;;6287926;28;20501;-79
2023/02/04 03:03:52;;;;;;;1.77;1.27;;;;;;;;;;6286569;28;20369;-78
2023/02/04 03:06:57;;;;;;;1.90;1.40;;;;;;;;;;6287329;28;20295;-78
2023/02/04 03:10:03;;;;;;;6.20;1.60;;;;;;;;;;6288139;28;20309;-78
2023/02/04 03:13:11;;;;;;;4.00;2.23;;;;;;;;;;6288613;28;20306;-78
2023/02/04 03:16:16;;;;;;;2.77;2.30;;;;;;;;;;6287904;28;20480;-78
2023/02/04 03:19:21;;;;;;;2.73;2.00;;;;;;;;;;6287922;28;20302;-77
2023/02/04 03:22:27;;;;;;;5.60;3.47;;;;;;;;;;6287177;28;20299;-79
2023/02/04 03:25:32;;;;;;;3.63;2.57;;;;;;;;;;6287950;28;20331;-78
2023/02/04 03:28:42;;;;;;;5.70;2.53;;;;;;;;;;6287339;28;20311;-78
2023/02/04 03:31:48;;;;;;;3.77;2.30;;;;;;;;;;6287044;28;20293;-77
2023/02/04 03:34:56;;;;;;;3.33;2.10;;;;;;;;;;6286526;28;20481;-77
2023/02/04 03:38:01;;;;;;;1.50;1.43;;;;;;;;;;6262945;28;20275;-77
2023/02/04 03:41:06;;;;;;;2.77;2.00;;;;;;;;;;6261861;28;20371;-77
2023/02/04 03:44:14;;;;;;;2.83;2.30;;;;;;;;;;6265263;28;20297;-79
2023/02/04 03:47:19;;;;;;;1.80;1.70;;;;;;;;;;6262714;28;20464;-77
2023/02/04 03:50:24;;;;;;;3.73;2.23;;;;;;;;;;6272988;28;20298;-78
2023/02/04 03:53:30;;;;;;;3.70;2.30;;;;;;;;;;6261847;28;20286;-78
2023/02/04 03:56:35;;;;;;;2.80;2.27;;;;;;;;;;6279848;28;20296;-78
2023/02/04 03:59:41;;;;;;;2.53;2.03;;;;;;;;;;6264796;28;20285;-78
2023/02/04 04:02:47;;;;;;;1.60;1.47;;;;;;;;;;6261087;28;20301;-77
2023/02/04 04:05:52;;;;;;;1.33;1.23;;;;;;;;;;6284803;28;20290;-78
2023/02/04 04:08:57;;;;;;;1.90;1.50;;;;;;;;;;6286194;28;20295;-78
2023/02/04 04:12:03;;;;;;;2.30;1.23;;;;;;;;;;6286823;28;20335;-78
2023/02/04 04:15:10;;;;;;;1.73;1.43;;;;;;;;;;6285764;28;20301;-79
2023/02/04 04:18:15;;;;;;;1.30;1.30;;;;;;;;;;6283711;28;20290;-78
2023/02/04 04:21:21;;;;;;;1.33;1.20;;;;;;;;;;6261803;28;20315;-78
2023/02/04 04:24:26;;;;;;;1.50;1.50;;;;;;;;;;6273543;28;20322;-79
2023/02/04 04:27:31;;;;;;;1.37;1.00;;;;;;;;;;6272873;28;20302;-77
2023/02/04 04:30:38;;;;;;;4.50;1.30;;;;;;;;;;6250557;28;20303;-78
2023/02/04 04:33:43;;;;;;;1.33;1.33;;;;;;;;;;6266881;28;20459;-78
2023/02/04 04:36:48;;;;;;;3.20;1.40;;;;;;;;;;6270479;28;20289;-78
2023/02/04 04:39:54;;;;;;;2.10;1.20;;;;;;;;;;6276477;28;20302;-78
2023/02/04 04:42:59;;;;;;;1.10;1.10;;;;;;;;;;6268921;28;20298;-78
2023/02/04 04:46:06;;;;;;;4.10;1.50;;;;;;;;;;6266704;28;20282;-76
2023/02/04 04:49:12;;;;;;;2.47;1.37;;;;;;;;;;6270605;28;20312;-78
2023/02/04 04:52:17;;;;;;;5.30;1.47;;;;;;;;;;6264835;28;20302;-77
2023/02/04 04:55:23;;;;;;;1.20;1.20;;;;;;;;;;6278950;28;20300;-79
2023/02/04 04:58:28;;;;;;;2.43;1.37;;;;;;;;;;6265686;28;20299;-77
2023/02/04 05:01:37;;;;;;;2.30;1.20;;;;;;;;;;6263132;28;20290;-77
2023/02/04 05:04:42;;;;;;;1.37;1.27;;;;;;;;;;6306438;28;20301;-79
2023/02/04 05:07:47;;;;;;;1.40;1.40;;;;;;;;;;6261332;28;20296;-79
2023/02/04 05:10:52;;;;;;;4.73;1.27;;;;;;;;;;6282650;28;20490;-79
2023/02/04 05:13:57;;;;;;;0.93;0.93;;;;;;;;;;6262949;28;20306;-77
2023/02/04 05:17:04;;;;;;;0.93;0.93;;;;;;;;;;6264747;28;20442;-77
2023/02/04 05:20:12;;;;;;;1.37;1.17;;;;;;;;;;6283711;28;20550;-77
2023/02/04 05:23:17;;;;;;;2.53;1.20;;;;;;;;;;6282434;28;20292;-78
2023/02/04 05:26:22;;;;;;;1.10;1.10;;;;;;;;;;6263488;28;20294;-78
2023/02/04 05:29:34;;;;;;;1.10;1.10;;;;;;;;;;6284724;28;20290;-77
2023/02/04 05:32:41;;;;;;;4.43;1.20;;;;;;;;;;6283687;28;20295;-77
2023/02/04 05:35:47;;;;;;;2.93;1.20;;;;;;;;;;6268639;28;20374;-77
2023/02/04 05:38:53;;;;;;;1.13;1.10;;;;;;;;;;6283110;28;20621;-78
2023/02/04 05:41:58;;;;;;;1.33;1.00;;;;;;;;;;6284625;28;20297;-78
2023/02/04 05:45:03;;;;;;;2.80;1.23;;;;;;;;;;6266933;28;20345;-77
2023/02/04 05:48:13;;;;;;;3.30;1.10;;;;;;;;;;6282952;28;20302;-78
2023/02/04 05:51:18;;;;;;;1.10;1.10;;;;;;;;;;6271155;28;20289;-77
2023/02/04 05:54:24;;;;;;;1.53;1.27;;;;;;;;;;6272660;28;20306;-78
2023/02/04 05:57:30;;;;;;;1.70;1.20;;;;;;;;;;6274716;28;20289;-78
2023/02/04 06:00:35;;;;;;;1.10;1.10;;;;;;;;;;6284673;28;20297;-78
2023/02/04 06:03:41;;;;;;;2.07;1.40;;;;;;;;;;6277616;28;20326;-77
2023/02/04 06:06:47;;;;;;;1.47;1.20;;;;;;;;;;6275586;28;20359;-78
2023/02/04 06:09:51;;;;;;;1.77;1.10;;;;;;;;;;6250664;28;20300;-78
2023/02/04 06:12:57;;;;;;;1.03;1.00;;;;;;;;;;6264390;28;20327;-78
2023/02/04 06:16:02;;;;;;;1.10;1.10;;;;;;;;;;6264672;28;20346;-78
2023/02/04 06:19:09;;;;;;;1.60;1.10;;;;;;;;;;6273741;28;20400;-78
2023/02/04 06:22:13;;;;;;;1.13;1.00;;;;;;;;;;6289553;28;20593;-78
2023/02/04 06:25:19;;;;;;;1.20;1.20;;;;;;;;;;6289708;28;20297;-79
2023/02/04 06:28:24;;;;;;;1.00;1.00;;;;;;;;;;6290370;28;20301;-78
2023/02/04 06:31:29;;;;;;;1.10;1.10;;;;;;;;;;6291379;28;20321;-77
2023/02/04 06:34:36;;;;;;;1.20;1.20;;;;;;;;;;6295633;28;20298;-77
2023/02/04 06:37:42;;;;;;;1.47;1.20;;;;;;;;;;6305639;28;20246;-78
2023/02/04 06:40:52;;;;;;;2.10;1.17;;;;;;;;;;6304651;28;20265;-77
2023/02/04 06:43:57;;;;;;;1.17;1.17;;;;;;;;;;6292354;28;20301;-78
2023/02/04 06:47:02;;;;;;;3.10;1.30;;;;;;;;;;6289288;28;20274;-77
2023/02/04 06:50:17;;;;;;;1.80;1.10;;;;;;;;;;6288709;28;20313;-77
2023/02/04 06:53:22;;;;;;;0.97;0.97;;;;;;;;;;6289029;28;20294;-78
2023/02/04 06:56:28;;;;;;;1.67;1.20;;;;;;;;;;6288917;28;20296;-78
2023/02/04 06:59:34;;;;;;;1.07;1.07;;;;;;;;;;6281401;28;20284;-77
2023/02/04 07:02:39;;;;;;;1.00;1.00;;;;;;;;;;6288406;28;20320;-78
2023/02/04 07:05:46;;;;;;;2.47;1.23;;;;;;;;;;6288023;28;20293;-78
2023/02/04 07:08:51;;;;;;;2.33;1.30;;;;;;;;;;6280711;28;20484;-78
2023/02/04 07:11:56;;;;;;;2.73;1.13;;;;;;;;;;6295368;28;20583;-78
2023/02/04 07:15:01;;;;;;;1.30;1.30;;;;;;;;;;6294738;28;20303;-78
2023/02/04 07:18:09;;;;;;;4.33;1.40;;;;;;;;;;6263957;28;20295;-77
2023/02/04 07:21:16;;;;;;;1.63;1.40;;;;;;;;;;6286386;28;20492;-78
2023/02/04 07:24:21;;;;;;;4.20;1.23;;;;;;;;;;6287539;28;20294;-77
2023/02/04 07:27:26;;;;;;;1.87;1.30;;;;;;;;;;6287957;28;20304;-78
2023/02/04 07:30:32;;;;;;;1.83;1.40;;;;;;;;;;6279034;28;20296;-77
2023/02/04 07:33:38;;;;;;;1.63;1.27;;;;;;;;;;6287211;28;20287;-79
2023/02/04 07:36:47;;;;;;;1.60;1.20;;;;;;;;;;6286125;28;20300;-79
2023/02/04 07:39:52;;;;;;;1.60;1.30;;;;;;;;;;6271939;28;20304;-78
2023/02/04 07:42:57;;;;;;;1.10;1.10;;;;;;;;;;6280644;28;20298;-78
2023/02/04 07:46:04;;;;;;;1.33;1.30;;;;;;;;;;6316141;28;20498;-78
2023/02/04 07:49:09;;;;;;;1.90;1.90;;;;;;;;;;6276062;28;20310;-79
2023/02/04 07:52:16;;;;;;;3.53;1.27;;;;;;;;;;6281259;28;20316;-78
2023/02/04 07:55:21;;;;;;;2.40;1.30;;;;;;;;;;6267478;28;20510;-78
2023/02/04 07:58:26;;;;;;;1.20;1.10;;;;;;;;;;6280062;28;20309;-78
2023/02/04 08:01:32;;;;;;;1.40;1.30;;;;;;;;;;6285013;28;20292;-78
2023/02/04 08:04:38;;;;;;;1.83;1.67;;;;;;;;;;6286940;28;20294;-77
2023/02/04 08:07:45;;;;;;;1.90;1.80;;;;;;;;;;6287169;28;20580;-77
2023/02/04 08:10:50;;;;;;;2.73;1.90;;;;;;;;;;6286367;28;20299;-80
2023/02/04 08:13:55;;;;;;;1.73;1.63;;;;;;;;;;6285489;28;20543;-79
2023/02/04 08:17:02;;;;;;;1.63;1.30;;;;;;;;;;6285559;28;20276;-79
2023/02/04 08:20:08;;;;;;;1.70;1.70;;;;;;;;;;6270187;28;20328;-77
2023/02/04 08:23:15;;;;;;;1.60;1.60;;;;;;;;;;6285274;28;20296;-78
2023/02/04 08:26:20;;;;;;;1.60;1.20;;;;;;;;;;6318630;28;20285;-79
2023/02/04 08:29:25;;;;;;;1.30;1.30;;;;;;;;;;6278140;28;20289;-77
2023/02/04 08:32:31;;;;;;;1.50;1.40;;;;;;;;;;6286736;28;20572;-77
2023/02/04 08:35:36;;;;;;;3.90;1.60;;;;;;;;;;6283676;28;20300;-79
2023/02/04 08:38:43;;;;;;;3.03;1.50;;;;;;;;;;6284630;28;20296;-78
2023/02/04 08:41:50;;;;;;;1.30;1.20;;;;;;;;;;6286672;28;20582;-79
2023/02/04 08:44:55;;;;;;;1.53;1.30;;;;;;;;;;6286015;28;20450;-80
2023/02/04 08:48:00;;;;;;;1.30;1.30;;;;;;;;;;6285772;28;20580;-79
2023/02/04 08:51:06;;;;;;;1.90;1.40;;;;;;;;;;6271972;28;20300;-80
2023/02/04 08:54:13;;;;;;;2.73;1.70;;;;;;;;;;6275654;28;20289;-79
2023/02/04 08:57:30;;;;;;;1.37;1.27;;;;;;;;;;6275074;28;20302;-78
2023/02/04 09:00:35;;;;;;;1.23;1.23;;;;;;;;;;6284495;28;20618;-78
2023/02/04 09:03:41;;;;;;;4.63;1.50;;;;;;;;;;6279370;28;20287;-78
2023/02/04 09:06:46;;;;;;;1.70;1.60;;;;;;;;;;6277380;28;20308;-78
2023/02/04 09:09:52;;;;;;;1.57;1.47;;;;;;;;;;6284254;28;20297;-77
2023/02/04 09:12:58;;;;;;;1.10;1.07;;;;;;;;;;6286139;28;20292;-79
2023/02/04 09:16:03;;;;;;;3.27;1.40;;;;;;;;;;6287663;28;20297;-80
2023/02/04 09:19:11;;;;;;;1.60;1.43;;;;;;;;;;6288039;28;20293;-77
2023/02/04 09:22:16;;;;;;;1.47;1.43;;;;;;;;;;6286412;28;20299;-79
2023/02/04 09:25:24;;;;;;;2.77;1.30;;;;;;;;;;6285393;28;20470;-78
2023/02/04 09:28:33;;;;;;;1.23;1.13;;;;;;;;;;6285263;28;20295;-79
2023/02/04 09:31:38;;;;;;;1.60;1.50;;;;;;;;;;6267964;28;20293;-81
2023/02/04 09:34:43;;;;;;;1.40;1.40;;;;;;;;;;6285502;28;20294;-79
2023/02/04 09:37:48;;;;;;;1.90;1.30;;;;;;;;;;6284708;28;20301;-79
2023/02/04 09:41:00;;;;;;;1.80;1.40;;;;;;;;;;6272994;28;20294;-79
2023/02/04 09:44:06;;;;;;;2.93;1.47;;;;;;;;;;6285830;28;20303;-77
2023/02/04 09:47:14;;;;;;;12.77;5.80;;;;;;;;;;6285996;28;20294;-79
2023/02/04 09:50:23;;;;;;;2.27;2.17;;;;;;;;;;6283402;28;20295;-79
2023/02/04 09:53:29;;;;;;;2.77;1.80;;;;;;;;;;6283758;28;20294;-78
2023/02/04 09:56:36;;;;;;;4.77;1.60;;;;;;;;;;6283873;28;20585;-78
2023/02/04 09:59:41;;;;;;;1.67;1.57;;;;;;;;;;6284800;28;20290;-78
2023/02/04 10:02:46;;;;;;;1.40;1.40;;;;;;;;;;6285552;28;20289;-79
2023/02/04 10:05:55;;;;;;;2.87;1.47;;;;;;;;;;6308172;28;20298;-78
2023/02/04 10:09:01;;;;;;;1.67;1.57;;;;;;;;;;6316752;28;20303;-78
2023/02/04 10:12:07;;;;;;;1.30;1.30;;;;;;;;;;6285017;28;20338;-79
2023/02/04 10:15:15;;;;;;;4.80;1.60;;;;;;;;;;6284507;28;20328;-79
2023/02/04 10:18:24;;;;;;;1.87;1.77;;;;;;;;;;6284607;28;20574;-79
2023/02/04 10:21:31;;;;;;;2.57;1.63;;;;;;;;;;6317059;28;20323;-79
2023/02/04 10:24:37;;;;;;;4.67;1.27;;;;;;;;;;6283485;28;20473;-79
2023/02/04 10:27:52;;;;;;;2.30;1.27;;;;;;;;;;6282761;28;20493;-80
2023/02/04 10:30:57;;;;;;;7.70;2.50;;;;;;;;;;6284051;28;20347;-78
2023/02/04 10:34:16;;;;;;;1.83;1.73;;;;;;;;;;6282512;28;20302;-78
2023/02/04 10:37:23;;;;;;;3.70;1.90;;;;;;;;;;6283464;28;20427;-78
2023/02/04 10:40:30;;;;;;;2.80;2.70;;;;;;;;;;6282161;28;20611;-78
2023/02/04 10:43:38;;;;;;;1.73;1.60;;;;;;;;;;6283923;28;20287;-79
2023/02/04 10:46:44;;;;;;;1.33;1.20;;;;;;;;;;6284221;28;20298;-78
2023/02/04 10:49:56;;;;;;;1.67;1.33;;;;;;;;;;6282015;28;20308;-79
2023/02/04 10:56:25;;;;;;;1.90;1.80;;;;;;;;;;6284276;28;20282;-78
2023/02/04 10:59:32;;;;;;;1.70;1.70;;;;;;;;;;6287616;28;20304;-79
2023/02/04 11:02:45;;;;;;;1.63;1.47;;;;;;;;;;6288967;28;20283;-78
2023/02/04 11:05:50;;;;;;;1.77;1.50;;;;;;;;;;6287066;28;20295;-79
2023/02/04 11:08:55;;;;;;;1.93;1.83;;;;;;;;;;6285959;28;20409;-79
2023/02/04 11:12:01;;;;;;;3.37;1.80;;;;;;;;;;6287867;28;20592;-79
2023/02/04 11:15:23;;;;;;;3.90;1.63;;;;;;;;;;6279654;28;20294;-79
2023/02/04 11:18:30;;;;;;;1.77;1.30;;;;;;;;;;6286992;28;20307;-79
2023/02/04 11:21:44;;;;;;;1.30;1.20;;;;;;;;;;6288238;28;20348;-79
2023/02/04 11:24:50;;;;;;;1.53;1.43;;;;;;;;;;6286497;28;20295;-78
2023/02/04 11:27:55;;;;;;;1.60;1.50;;;;;;;;;;6288086;28;20299;-79
2023/02/04 11:31:03;;;;;;;1.67;1.57;;;;;;;;;;6287669;28;20584;-77
2023/02/04 11:34:13;;;;;;;2.90;1.53;;;;;;;;;;6269762;28;20310;-78
2023/02/04 11:37:34;;;;;;;3.13;1.60;;;;;;;;;;6286967;28;20307;-78
2023/02/04 11:40:41;;;;;;;2.20;1.60;;;;;;;;;;6288032;28;20317;-79
2023/02/04 11:43:47;;;;;;;1.60;1.50;;;;;;;;;;6287970;28;20298;-78
2023/02/04 11:46:55;;;;;;;2.73;1.20;;;;;;;;;;6295942;28;20267;-79
2023/02/04 11:50:04;;;;;;;1.37;1.37;;;;;;;;;;6297193;28;20311;-77
2023/02/04 11:53:11;;;;;;;4.80;1.73;;;;;;;;;;6298041;28;20278;-79
2023/02/04 11:56:18;;;;;;;1.70;1.70;;;;;;;;;;6297530;28;20283;-77
2023/02/04 11:59:23;;;;;;;2.30;1.93;;;;;;;;;;6296391;28;20298;-78
2023/02/04 12:02:42;;;;;;;2.80;1.77;;;;;;;;;;6286184;28;20301;-78
2023/02/04 12:05:48;;;;;;;1.67;1.57;;;;;;;;;;6286917;28;20290;-78
2023/02/04 12:08:53;;;;;;;1.63;1.53;;;;;;;;;;6287370;28;20311;-79
2023/02/04 12:11:59;;;;;;;1.50;1.50;;;;;;;;;;6284539;28;20478;-77
2023/02/04 12:15:14;;;;;;;4.47;1.50;;;;;;;;;;6287019;28;20302;-79
2023/02/04 12:18:21;;;;;;;5.03;1.50;;;;;;;;;;6284270;28;20293;-78
2023/02/04 12:21:26;;;;;;;7.60;2.37;;;;;;;;;;6279508;28;20307;-78
2023/02/04 12:24:31;;;;;;;3.30;1.97;;;;;;;;;;6275350;28;20463;-77
2023/02/04 12:27:36;;;;;;;2.00;1.90;;;;;;;;;;6277589;28;20304;-78
2023/02/04 12:30:41;;;;;;;1.73;1.63;;;;;;;;;;6286536;28;20609;-77
2023/02/04 12:33:48;;;;;;;2.83;1.80;;;;;;;;;;6285582;28;20296;-77
2023/02/04 12:36:53;;;;;;;4.37;1.87;;;;;;;;;;6286133;28;20319;-78
2023/02/04 12:39:59;;;;;;;2.03;1.73;;;;;;;;;;6269347;28;20583;-79
2023/02/04 12:43:06;;;;;;;3.50;1.70;;;;;;;;;;6260389;28;20571;-79
2023/02/04 12:46:12;;;;;;;4.30;3.07;;;;;;;;;;6280294;28;20307;-78
2023/02/04 12:49:18;;;;;;;4.03;2.20;;;;;;;;;;6283845;28;20305;-79
2023/02/04 12:52:24;;;;;;;3.60;1.30;;;;;;;;;;6286189;28;20300;-79
2023/02/04 12:55:30;;;;;;;2.00;1.60;;;;;;;;;;6285405;28;20302;-76
2023/02/04 12:58:36;;;;;;;1.70;1.60;;;;;;;;;;6285019;28;20292;-76
2023/02/04 13:01:41;;;;;;;3.70;2.30;;;;;;;;;;6285141;28;20295;-78
2023/02/04 13:04:48;;;;;;;2.07;1.87;;;;;;;;;;6302159;28;20301;-79
2023/02/04 13:07:57;;;;;;;3.43;2.07;;;;;;;;;;6284935;28;20630;-78
2023/02/04 13:11:02;;;;;;;1.80;1.70;;;;;;;;;;6284885;28;20403;-78
2023/02/04 13:14:11;;;;;;;1.50;1.40;;;;;;;;;;6283667;28;20291;-78
2023/02/04 13:17:16;;;;;;;2.27;1.53;;;;;;;;;;6284950;28;20283;-78
2023/02/04 13:20:23;;;;;;;2.30;1.83;;;;;;;;;;6283987;28;20298;-78
2023/02/04 13:23:28;;;;;;;1.50;1.50;;;;;;;;;;6266571;28;20300;-79
2023/02/04 13:26:34;;;;;;;4.30;1.93;;;;;;;;;;6284899;28;20291;-78
2023/02/04 13:29:39;;;;;;;1.47;1.40;;;;;;;;;;6284598;28;20298;-80
2023/02/04 13:32:45;;;;;;;3.47;3.27;;;;;;;;;;6284816;28;20286;-79
2023/02/04 13:35:52;;;;;;;2.93;1.53;;;;;;;;;;6307962;28;20291;-79
2023/02/04 13:38:59;;;;;;;1.57;1.57;;;;;;;;;;6276731;28;20300;-80
2023/02/04 13:42:05;;;;;;;1.53;1.50;;;;;;;;;;6270269;28;20292;-79
2023/02/04 13:45:12;;;;;;;1.60;1.50;;;;;;;;;;6283258;28;20300;-79
2023/02/04 13:48:17;;;;;;;1.83;1.30;;;;;;;;;;6280640;28;20306;-77
2023/02/04 13:51:24;;;;;;;3.50;1.50;;;;;;;;;;6272302;28;20304;-78
2023/02/04 13:54:29;;;;;;;1.50;1.47;;;;;;;;;;6284230;28;20454;-79
2023/02/04 13:57:36;;;;;;;1.40;1.33;;;;;;;;;;6283220;28;20290;-77
2023/02/04 14:00:41;;;;;;;5.60;1.77;;;;;;;;;;6276846;28;20298;-80
2023/02/04 14:03:49;;;;;;;7.23;2.27;;;;;;;;;;6313579;28;20372;-78
2023/02/04 14:06:55;;;;;;;3.23;1.70;;;;;;;;;;6284691;28;20291;-77
2023/02/04 14:10:01;;;;;;;3.37;1.50;;;;;;;;;;6282638;28;20298;-79
2023/02/04 14:13:06;;;;;;;2.57;2.37;;;;;;;;;;6282439;28;20606;-78
2023/02/04 14:16:14;;;;;;;1.90;1.80;;;;;;;;;;6284231;28;20294;-78
2023/02/04 14:19:23;;;;;;;1.63;1.60;;;;;;;;;;6283750;28;20588;-78
2023/02/04 14:22:29;;;;;;;2.20;1.40;;;;;;;;;;6284123;28;20288;-79
2023/02/04 14:25:35;;;;;;;2.07;1.90;;;;;;;;;;6276181;28;20295;-78
2023/02/04 14:28:40;;;;;;;4.77;1.90;;;;;;;;;;6257167;28;20370;-78
2023/02/04 14:31:45;;;;;;;2.17;2.07;;;;;;;;;;6259945;28;20295;-78
2023/02/04 14:34:52;;;;;;;4.10;2.10;;;;;;;;;;6262935;28;20306;-79
2023/02/04 14:37:59;;;;;;;3.20;2.53;;;;;;;;;;6263924;28;20295;-79
2023/02/04 14:41:04;;;;;;;7.77;1.60;;;;;;;;;;6263538;28;20299;-79
2023/02/04 14:44:11;;;;;;;2.50;1.83;;;;;;;;;;6262152;28;22031;-75
2023/02/04 14:47:16;;;;;;;2.53;2.43;;;;;;;;;;6264302;28;20480;-75
2023/02/04 14:50:25;;;;;;;2.43;2.33;;;;;;;;;;6262339;28;20299;-76
2023/02/04 14:53:32;;;;;;;3.07;1.83;;;;;;;;;;6263715;28;20603;-80
2023/02/04 14:56:38;;;;;;;3.33;2.30;;;;;;;;;;6262560;28;20455;-80
2023/02/04 14:59:49;;;;;;;2.70;1.50;;;;;;;;;;6260402;28;20295;-77
2023/02/04 15:02:54;;;;;;;2.03;1.93;;;;;;;;;;6263803;28;20300;-74
2023/02/04 15:06:00;;;;;;;1.90;1.80;;;;;;;;;;6285397;28;20474;-76
2023/02/04 15:09:06;;;;;;;1.70;1.60;;;;;;;;;;6263471;28;20295;-77
2023/02/04 15:12:12;;;;;;;4.93;1.70;;;;;;;;;;6285581;28;20295;-79
2023/02/04 15:15:17;;;;;;;1.57;1.53;;;;;;;;;;6281110;28;20306;-78
2023/02/04 15:18:23;;;;;;;3.50;3.40;;;;;;;;;;6286030;28;20306;-76
2023/02/04 15:21:28;;;;;;;2.30;2.20;;;;;;;;;;6287804;28;20377;-79
2023/02/04 15:24:34;;;;;;;5.00;2.13;;;;;;;;;;6286212;28;20293;-76
2023/02/04 15:27:40;;;;;;;2.37;2.13;;;;;;;;;;6287009;28;20479;-73
2023/02/04 15:30:45;;;;;;;3.63;2.83;;;;;;;;;;6287489;28;20290;-83
2023/02/04 15:33:50;;;;;;;3.40;3.00;;;;;;;;;;6287408;28;20299;-81
2023/02/04 15:36:58;;;;;;;2.77;2.57;;;;;;;;;;6288234;28;20290;-77
2023/02/04 15:40:07;;;;;;;4.53;2.50;;;;;;;;;;6287109;28;20311;-79
2023/02/04 15:43:12;;;;;;;4.57;2.60;;;;;;;;;;6288871;28;20309;-76
2023/02/04 15:46:17;;;;;;;2.47;2.30;;;;;;;;;;6287193;28;20308;-76
2023/02/04 15:49:23;;;;;;;6.90;2.10;;;;;;;;;;6286527;28;20311;-83
2023/02/04 15:52:28;;;;;;;2.57;2.10;;;;;;;;;;6288151;28;20299;-81
2023/02/04 15:55:35;;;;;;;4.00;1.90;;;;;;;;;;6287343;28;20607;-78
2023/02/04 15:58:40;;;;;;;2.13;1.93;;;;;;;;;;6287634;28;20617;-81
2023/02/04 16:01:45;;;;;;;2.10;2.00;;;;;;;;;;6286845;28;20349;-76
2023/02/04 16:04:51;;;;;;;8.67;1.73;;;;;;;;;;6285376;28;20302;-78
2023/02/04 16:07:56;;;;;;;2.60;1.80;;;;;;;;;;6287018;28;20277;-79
2023/02/04 16:11:03;;;;;;;2.27;1.90;;;;;;;;;;6286025;28;20295;-76
2023/02/04 16:14:11;;;;;;;2.30;2.10;;;;;;;;;;6284833;28;20292;-75
2023/02/04 16:17:17;;;;;;;4.37;1.80;;;;;;;;;;6285432;28;20290;-75
2023/02/04 16:20:23;;;;;;;2.23;2.07;;;;;;;;;;6285806;28;20293;-75
2023/02/04 16:23:28;;;;;;;2.90;2.70;;;;;;;;;;6286322;28;20301;-80
2023/02/04 16:26:34;;;;;;;2.37;2.20;;;;;;;;;;6286153;28;20303;-72
2023/02/04 16:29:39;;;;;;;3.00;1.90;;;;;;;;;;6285465;28;20292;-79
2023/02/04 16:32:47;;;;;;;2.00;1.87;;;;;;;;;;6287681;28;20582;-79
2023/02/04 16:36:01;;;;;;;2.77;2.57;;;;;;;;;;6284999;28;20292;-79
2023/02/04 16:39:06;;;;;;;2.23;2.07;;;;;;;;;;6284771;28;20299;-76
2023/02/04 16:42:14;;;;;;;3.43;2.40;;;;;;;;;;6317999;28;20302;-79
2023/02/04 16:45:20;;;;;;;2.60;2.43;;;;;;;;;;6286021;28;20293;-78
2023/02/04 16:48:27;;;;;;;3.57;1.90;;;;;;;;;;6285421;28;20468;-78
2023/02/04 16:51:32;;;;;;;2.50;2.10;;;;;;;;;;6285932;28;20318;-78
2023/02/04 16:54:38;;;;;;;4.20;2.27;;;;;;;;;;6284837;28;20300;-77
2023/02/04 16:57:44;;;;;;;2.40;2.20;;;;;;;;;;6285098;28;20294;-77
2023/02/04 17:00:50;;;;;;;3.80;2.53;;;;;;;;;;6284954;28;20298;-71
2023/02/04 17:03:57;;;;;;;2.27;2.17;;;;;;;;;;6285337;28;20622;-80
2023/02/04 17:07:02;;;;;;;5.80;2.63;;;;;;;;;;6285614;28;20391;-77
2023/02/04 17:10:08;;;;;;;3.97;2.70;;;;;;;;;;6285257;28;20293;-74
2023/02/04 17:13:15;;;;;;;3.10;2.90;;;;;;;;;;6283695;28;20472;-79
2023/02/04 17:16:21;;;;;;;3.27;2.73;;;;;;;;;;6280853;28;20364;-79
2023/02/04 17:19:26;;;;;;;3.00;2.53;;;;;;;;;;6285093;28;20305;-76
2023/02/04 17:22:32;;;;;;;3.37;3.07;;;;;;;;;;6285801;28;20310;-75
2023/02/04 17:25:37;;;;;;;4.20;3.23;;;;;;;;;;6285492;28;20319;-80
2023/02/04 17:28:43;;;;;;;6.47;3.90;;;;;;;;;;6283377;28;20312;-79
2023/02/04 17:31:49;;;;;;;4.97;3.50;;;;;;;;;;6285367;28;20297;-78
2023/02/04 17:34:55;;;;;;;6.17;3.77;;;;;;;;;;6283391;28;20297;-77
2023/02/04 17:38:03;;;;;;;6.23;4.10;;;;;;;;;;6284389;28;20282;-78
2023/02/04 17:41:10;;;;;;;4.07;3.23;;;;;;;;;;6284649;28;20298;-77
2023/02/04 17:44:18;;;;;;;7.13;3.87;;;;;;;;;;6284244;28;20301;-78
2023/02/04 17:47:24;;;;;;;6.43;4.30;;;;;;;;;;6285631;28;20595;-78
2023/02/04 17:50:29;;;;;;;4.60;4.23;;;;;;;;;;6284772;28;20322;-81
2023/02/04 17:53:35;;;;;;;6.57;4.20;;;;;;;;;;6284193;28;20281;-78
2023/02/04 17:56:43;;;;;;;13.43;4.20;;;;;;;;;;6284544;28;20293;-77
2023/02/04 17:59:50;;;;;;;3.20;2.97;;;;;;;;;;6285739;28;20296;-79
2023/02/04 18:02:58;;;;;;;3.00;2.73;;;;;;;;;;6287945;28;20301;-80
2023/02/04 18:06:17;;;;;;;3.10;2.90;;;;;;;;;;6295709;28;20290;-79
2023/02/04 18:09:22;;;;;;;2.90;2.70;;;;;;;;;;6298963;28;20301;-77
2023/02/04 18:12:28;;;;;;;2.80;2.60;;;;;;;;;;6294496;28;20305;-79
2023/02/04 18:15:35;;;;;;;5.30;2.57;;;;;;;;;;6289601;28;20296;-79
2023/02/04 18:18:41;;;;;;;2.63;2.53;;;;;;;;;;6284339;28;20297;-78
2023/02/04 18:21:47;;;;;;;2.90;2.67;;;;;;;;;;6280592;28;20304;-78
2023/02/04 18:24:52;;;;;;;2.83;2.70;;;;;;;;;;6289462;28;20304;-78
2023/02/04 18:27:58;;;;;;;2.90;2.70;;;;;;;;;;6289553;28;20303;-77
2023/02/04 18:31:22;;;;;;;3.37;2.27;;;;;;;;;;6288827;28;20311;-77
2023/02/04 18:34:33;;;;;;;2.50;2.27;;;;;;;;;;6277528;28;20610;-79
2023/02/04 18:37:42;;;;;;;3.60;2.47;;;;;;;;;;6287077;28;20469;-79
2023/02/04 18:40:48;;;;;;;2.57;2.47;;;;;;;;;;6288604;28;20292;-78
2023/02/04 18:44:01;;;;;;;2.77;2.57;;;;;;;;;;6262571;28;20321;-77